sensor_id;sensor_type;location;lat;lon;timestamp;P1;durP1;ratioP1;P2;durP2;ratioP2
11082;SDS011;5595;50.186;8.468;2023-04-24T00:00:01;0.10;;;0.10;;
11082;SDS011;5595;50.186;8.468;2023-04-24T00:02:30;0.20;;;0.20;;
11082;SDS011;5595;50.186;8.468;2023-04-24T00:04:59;0.10;;;0.10;;
11082;SDS011;5595;50.186;8.468;2023-04-24T00:07:27;0.20;;;0.20;;
11082;SDS011;5595;50.186;8.468;2023-04-24T00:09:54;1.70;;;0.20;;
11082;SDS011;5595;50.186;8.468;2023-04-24T00:12:21;0.27;;;0.27;;
11082;SDS011;5595;50.186;8.468;2023-04-24T00:14:48;0.10;;;0.10;;
11082;SDS011;5595;50.186;8.468;2023-04-24T00:17:15;0.17;;;0.17;;
11082;SDS011;5595;50.186;8.468;2023-04-24T00:19:44;0.03;;;0.03;;
11082;SDS011;5595;50.186;8.468;2023-04-24T00:22:13;0.10;;;0.10;;
11082;SDS011;5595;50.186;8.468;2023-04-24T00:24:40;0.20;;;0.20;;
11082;SDS011;5595;50.186;8.468;2023-04-24T00:27:07;0.30;;;0.23;;
11082;SDS011;5595;50.186;8.468;2023-04-24T00:29:34;0.30;;;0.20;;
11082;SDS011;5595;50.186;8.468;2023-04-24T00:32:01;0.10;;;0.10;;
11082;SDS011;5595;50.186;8.468;2023-04-24T00:34:28;0.33;;;0.10;;
11082;SDS011;5595;50.186;8.468;2023-04-24T00:36:55;0.10;;;0.10;;
11082;SDS011;5595;50.186;8.468;2023-04-24T00:39:23;2.50;;;0.03;;
11082;SDS011;5595;50.186;8.468;2023-04-24T00:41:50;0.10;;;0.10;;
11082;SDS011;5595;50.186;8.468;2023-04-24T00:44:17;0.00;;;0.00;;
11082;SDS011;5595;50.186;8.468;2023-04-24T00:46:44;0.10;;;0.10;;
11082;SDS011;5595;50.186;8.468;2023-04-24T00:49:16;0.10;;;0.10;;
11082;SDS011;5595;50.186;8.468;2023-04-24T00:51:44;0.20;;;0.20;;
11082;SDS011;5595;50.186;8.468;2023-04-24T00:54:12;0.10;;;0.10;;
11082;SDS011;5595;50.186;8.468;2023-04-24T00:56:40;0.30;;;0.10;;
11082;SDS011;5595;50.186;8.468;2023-04-24T00:59:07;0.20;;;0.20;;
11082;SDS011;5595;50.186;8.468;2023-04-24T01:01:34;0.10;;;0.10;;
11082;SDS011;5595;50.186;8.468;2023-04-24T01:04:02;0.20;;;0.20;;
11082;SDS011;5595;50.186;8.468;2023-04-24T01:06:29;0.20;;;0.07;;
11082;SDS011;5595;50.186;8.468;2023-04-24T01:08:57;0.10;;;0.10;;
11082;SDS011;5595;50.186;8.468;2023-04-24T01:11:24;0.07;;;0.07;;
11082;SDS011;5595;50.186;8.468;2023-04-24T01:13:53;0.10;;;0.10;;
11082;SDS011;5595;50.186;8.468;2023-04-24T01:16:19;0.32;;;0.28;;
11082;SDS011;5595;50.186;8.468;2023-04-24T01:18:46;0.10;;;0.10;;
11082;SDS011;5595;50.186;8.468;2023-04-24T01:21:14;0.10;;;0.10;;
11082;SDS011;5595;50.186;8.468;2023-04-24T01:23:43;0.20;;;0.13;;
11082;SDS011;5595;50.186;8.468;2023-04-24T01:26:10;0.25;;;0.25;;
11082;SDS011;5595;50.186;8.468;2023-04-24T01:28:37;0.73;;;0.20;;
11082;SDS011;5595;50.186;8.468;2023-04-24T01:31:04;0.10;;;0.10;;
11082;SDS011;5595;50.186;8.468;2023-04-24T01:33:33;0.30;;;0.20;;
11082;SDS011;5595;50.186;8.468;2023-04-24T01:36:00;0.10;;;0.10;;
11082;SDS011;5595;50.186;8.468;2023-04-24T01:38:27;0.10;;;0.10;;
11082;SDS011;5595;50.186;8.468;2023-04-24T01:40:55;0.10;;;0.10;;
11082;SDS011;5595;50.186;8.468;2023-04-24T01:43:22;1.10;;;0.10;;
11082;SDS011;5595;50.186;8.468;2023-04-24T01:45:50;0.10;;;0.10;;
11082;SDS011;5595;50.186;8.468;2023-04-24T01:48:17;0.10;;;0.10;;
11082;SDS011;5595;50.186;8.468;2023-04-24T01:50:44;0.50;;;0.13;;
11082;SDS011;5595;50.186;8.468;2023-04-24T01:53:12;0.10;;;0.10;;
11082;SDS011;5595;50.186;8.468;2023-04-24T01:55:40;0.10;;;0.10;;
11082;SDS011;5595;50.186;8.468;2023-04-24T01:58:09;0.10;;;0.10;;
11082;SDS011;5595;50.186;8.468;2023-04-24T02:00:36;0.10;;;0.10;;
11082;SDS011;5595;50.186;8.468;2023-04-24T02:03:03;0.10;;;0.10;;
11082;SDS011;5595;50.186;8.468;2023-04-24T02:05:30;0.20;;;0.20;;
11082;SDS011;5595;50.186;8.468;2023-04-24T02:07:57;0.10;;;0.10;;
11082;SDS011;5595;50.186;8.468;2023-04-24T02:10:24;0.00;;;0.00;;
11082;SDS011;5595;50.186;8.468;2023-04-24T02:12:51;0.10;;;0.10;;
11082;SDS011;5595;50.186;8.468;2023-04-24T02:15:20;0.27;;;0.27;;
11082;SDS011;5595;50.186;8.468;2023-04-24T02:17:47;0.20;;;0.20;;
11082;SDS011;5595;50.186;8.468;2023-04-24T02:20:13;0.20;;;0.20;;
11082;SDS011;5595;50.186;8.468;2023-04-24T02:22:40;0.30;;;0.30;;
11082;SDS011;5595;50.186;8.468;2023-04-24T02:25:07;0.93;;;0.20;;
11082;SDS011;5595;50.186;8.468;2023-04-24T02:27:35;0.10;;;0.00;;
11082;SDS011;5595;50.186;8.468;2023-04-24T02:30:02;0.43;;;0.10;;
11082;SDS011;5595;50.186;8.468;2023-04-24T02:32:31;0.20;;;0.20;;
11082;SDS011;5595;50.186;8.468;2023-04-24T02:34:58;0.10;;;0.10;;
11082;SDS011;5595;50.186;8.468;2023-04-24T02:37:26;0.10;;;0.10;;
11082;SDS011;5595;50.186;8.468;2023-04-24T02:39:52;0.20;;;0.10;;
11082;SDS011;5595;50.186;8.468;2023-04-24T02:42:19;0.20;;;0.20;;
11082;SDS011;5595;50.186;8.468;2023-04-24T02:44:46;0.10;;;0.10;;
11082;SDS011;5595;50.186;8.468;2023-04-24T02:47:13;0.30;;;0.20;;
11082;SDS011;5595;50.186;8.468;2023-04-24T02:49:41;0.10;;;0.10;;
11082;SDS011;5595;50.186;8.468;2023-04-24T02:52:08;0.20;;;0.20;;
11082;SDS011;5595;50.186;8.468;2023-04-24T02:54:35;0.40;;;0.20;;
11082;SDS011;5595;50.186;8.468;2023-04-24T02:57:02;0.10;;;0.10;;
11082;SDS011;5595;50.186;8.468;2023-04-24T02:59:29;0.57;;;0.20;;
11082;SDS011;5595;50.186;8.468;2023-04-24T03:01:56;0.40;;;0.40;;
11082;SDS011;5595;50.186;8.468;2023-04-24T03:04:23;0.10;;;0.10;;
11082;SDS011;5595;50.186;8.468;2023-04-24T03:06:52;0.20;;;0.20;;
11082;SDS011;5595;50.186;8.468;2023-04-24T03:09:19;0.10;;;0.10;;
11082;SDS011;5595;50.186;8.468;2023-04-24T03:11:46;0.13;;;0.13;;
11082;SDS011;5595;50.186;8.468;2023-04-24T03:14:13;0.20;;;0.20;;
11082;SDS011;5595;50.186;8.468;2023-04-24T03:16:40;1.17;;;0.20;;
11082;SDS011;5595;50.186;8.468;2023-04-24T03:19:07;0.10;;;0.10;;
11082;SDS011;5595;50.186;8.468;2023-04-24T03:21:34;0.20;;;0.10;;
11082;SDS011;5595;50.186;8.468;2023-04-24T03:24:06;0.23;;;0.10;;
11082;SDS011;5595;50.186;8.468;2023-04-24T03:26:34;0.20;;;0.20;;
11082;SDS011;5595;50.186;8.468;2023-04-24T03:29:01;0.10;;;0.10;;
11082;SDS011;5595;50.186;8.468;2023-04-24T03:31:28;0.10;;;0.10;;
11082;SDS011;5595;50.186;8.468;2023-04-24T03:33:55;0.20;;;0.10;;
11082;SDS011;5595;50.186;8.468;2023-04-24T03:36:21;0.10;;;0.10;;
11082;SDS011;5595;50.186;8.468;2023-04-24T03:38:48;0.30;;;0.10;;
11082;SDS011;5595;50.186;8.468;2023-04-24T03:41:17;0.10;;;0.10;;
11082;SDS011;5595;50.186;8.468;2023-04-24T03:43:43;0.17;;;0.17;;
11082;SDS011;5595;50.186;8.468;2023-04-24T03:46:10;0.10;;;0.10;;
11082;SDS011;5595;50.186;8.468;2023-04-24T03:48:37;0.20;;;0.20;;
11082;SDS011;5595;50.186;8.468;2023-04-24T03:51:04;0.20;;;0.10;;
11082;SDS011;5595;50.186;8.468;2023-04-24T03:53:31;0.17;;;0.17;;
11082;SDS011;5595;50.186;8.468;2023-04-24T03:55:58;0.20;;;0.10;;
11082;SDS011;5595;50.186;8.468;2023-04-24T03:58:26;0.40;;;0.27;;
11082;SDS011;5595;50.186;8.468;2023-04-24T04:00:53;0.87;;;0.57;;
11082;SDS011;5595;50.186;8.468;2023-04-24T04:03:21;0.30;;;0.13;;
11082;SDS011;5595;50.186;8.468;2023-04-24T04:05:48;0.50;;;0.10;;
11082;SDS011;5595;50.186;8.468;2023-04-24T04:08:15;0.83;;;0.40;;
11082;SDS011;5595;50.186;8.468;2023-04-24T04:10:42;0.03;;;0.03;;
11082;SDS011;5595;50.186;8.468;2023-04-24T04:13:09;2.33;;;0.30;;
11082;SDS011;5595;50.186;8.468;2023-04-24T04:15:37;0.30;;;0.30;;
11082;SDS011;5595;50.186;8.468;2023-04-24T04:18:04;1.50;;;0.10;;
11082;SDS011;5595;50.186;8.468;2023-04-24T04:20:34;0.10;;;0.10;;
11082;SDS011;5595;50.186;8.468;2023-04-24T04:23:01;0.30;;;0.30;;
11082;SDS011;5595;50.186;8.468;2023-04-24T04:25:28;0.10;;;0.10;;
11082;SDS011;5595;50.186;8.468;2023-04-24T04:27:55;0.27;;;0.27;;
11082;SDS011;5595;50.186;8.468;2023-04-24T04:30:25;0.23;;;0.23;;
11082;SDS011;5595;50.186;8.468;2023-04-24T04:32:55;0.27;;;0.27;;
11082;SDS011;5595;50.186;8.468;2023-04-24T04:35:22;0.20;;;0.17;;
11082;SDS011;5595;50.186;8.468;2023-04-24T04:37:49;0.20;;;0.20;;
11082;SDS011;5595;50.186;8.468;2023-04-24T04:40:16;0.10;;;0.10;;
11082;SDS011;5595;50.186;8.468;2023-04-24T04:42:43;0.57;;;0.20;;
11082;SDS011;5595;50.186;8.468;2023-04-24T04:45:11;0.20;;;0.20;;
11082;SDS011;5595;50.186;8.468;2023-04-24T04:47:38;0.43;;;0.30;;
11082;SDS011;5595;50.186;8.468;2023-04-24T04:50:07;0.20;;;0.17;;
11082;SDS011;5595;50.186;8.468;2023-04-24T04:52:35;0.47;;;0.40;;
11082;SDS011;5595;50.186;8.468;2023-04-24T04:55:02;0.67;;;0.27;;
11082;SDS011;5595;50.186;8.468;2023-04-24T04:57:30;0.17;;;0.13;;
11082;SDS011;5595;50.186;8.468;2023-04-24T04:59:57;0.27;;;0.20;;
11082;SDS011;5595;50.186;8.468;2023-04-24T05:02:24;0.30;;;0.30;;
11082;SDS011;5595;50.186;8.468;2023-04-24T05:04:50;0.30;;;0.30;;
11082;SDS011;5595;50.186;8.468;2023-04-24T05:07:19;0.90;;;0.30;;
11082;SDS011;5595;50.186;8.468;2023-04-24T05:09:45;0.60;;;0.60;;
11082;SDS011;5595;50.186;8.468;2023-04-24T05:12:12;0.33;;;0.33;;
11082;SDS011;5595;50.186;8.468;2023-04-24T05:14:39;0.40;;;0.27;;
11082;SDS011;5595;50.186;8.468;2023-04-24T05:17:06;0.30;;;0.30;;
11082;SDS011;5595;50.186;8.468;2023-04-24T05:19:35;0.20;;;0.20;;
11082;SDS011;5595;50.186;8.468;2023-04-24T05:22:03;0.20;;;0.20;;
11082;SDS011;5595;50.186;8.468;2023-04-24T05:24:33;0.53;;;0.40;;
11082;SDS011;5595;50.186;8.468;2023-04-24T05:27:00;0.70;;;0.40;;
11082;SDS011;5595;50.186;8.468;2023-04-24T05:29:29;0.30;;;0.30;;
11082;SDS011;5595;50.186;8.468;2023-04-24T05:31:56;2.23;;;0.40;;
11082;SDS011;5595;50.186;8.468;2023-04-24T05:34:23;1.53;;;0.30;;
11082;SDS011;5595;50.186;8.468;2023-04-24T05:36:50;0.30;;;0.30;;
11082;SDS011;5595;50.186;8.468;2023-04-24T05:39:18;0.20;;;0.20;;
11082;SDS011;5595;50.186;8.468;2023-04-24T05:41:46;0.37;;;0.30;;
11082;SDS011;5595;50.186;8.468;2023-04-24T05:44:13;1.33;;;0.30;;
11082;SDS011;5595;50.186;8.468;2023-04-24T05:46:40;0.30;;;0.30;;
11082;SDS011;5595;50.186;8.468;2023-04-24T05:49:07;0.13;;;0.13;;
11082;SDS011;5595;50.186;8.468;2023-04-24T05:51:34;0.40;;;0.23;;
11082;SDS011;5595;50.186;8.468;2023-04-24T05:54:01;0.53;;;0.50;;
11082;SDS011;5595;50.186;8.468;2023-04-24T05:56:28;0.50;;;0.40;;
11082;SDS011;5595;50.186;8.468;2023-04-24T05:58:57;0.30;;;0.30;;
11082;SDS011;5595;50.186;8.468;2023-04-24T06:01:24;0.30;;;0.30;;
11082;SDS011;5595;50.186;8.468;2023-04-24T06:03:51;0.30;;;0.30;;
11082;SDS011;5595;50.186;8.468;2023-04-24T06:06:18;1.43;;;0.60;;
11082;SDS011;5595;50.186;8.468;2023-04-24T06:08:45;0.63;;;0.50;;
11082;SDS011;5595;50.186;8.468;2023-04-24T06:11:12;0.67;;;0.37;;
11082;SDS011;5595;50.186;8.468;2023-04-24T06:13:39;0.87;;;0.50;;
11082;SDS011;5595;50.186;8.468;2023-04-24T06:16:07;2.97;;;0.40;;
11082;SDS011;5595;50.186;8.468;2023-04-24T06:18:34;1.13;;;0.40;;
11082;SDS011;5595;50.186;8.468;2023-04-24T06:21:01;0.40;;;0.40;;
11082;SDS011;5595;50.186;8.468;2023-04-24T06:23:28;0.73;;;0.47;;
11082;SDS011;5595;50.186;8.468;2023-04-24T06:25:57;0.67;;;0.37;;
11082;SDS011;5595;50.186;8.468;2023-04-24T06:28:24;0.47;;;0.30;;
11082;SDS011;5595;50.186;8.468;2023-04-24T06:30:51;1.20;;;0.63;;
11082;SDS011;5595;50.186;8.468;2023-04-24T06:33:19;0.30;;;0.30;;
11082;SDS011;5595;50.186;8.468;2023-04-24T06:35:46;0.60;;;0.57;;
11082;SDS011;5595;50.186;8.468;2023-04-24T06:38:13;1.13;;;0.70;;
11082;SDS011;5595;50.186;8.468;2023-04-24T06:40:41;0.88;;;0.60;;
11082;SDS011;5595;50.186;8.468;2023-04-24T06:43:07;0.85;;;0.60;;
11082;SDS011;5595;50.186;8.468;2023-04-24T06:45:36;1.05;;;0.70;;
11082;SDS011;5595;50.186;8.468;2023-04-24T06:48:04;1.58;;;0.80;;
11082;SDS011;5595;50.186;8.468;2023-04-24T06:50:32;1.10;;;0.60;;
11082;SDS011;5595;50.186;8.468;2023-04-24T06:52:59;0.55;;;0.50;;
11082;SDS011;5595;50.186;8.468;2023-04-24T06:55:26;0.63;;;0.63;;
11082;SDS011;5595;50.186;8.468;2023-04-24T06:57:53;0.60;;;0.60;;
11082;SDS011;5595;50.186;8.468;2023-04-24T07:00:20;1.23;;;0.68;;
11082;SDS011;5595;50.186;8.468;2023-04-24T07:02:49;0.57;;;0.57;;
11082;SDS011;5595;50.186;8.468;2023-04-24T07:05:16;1.80;;;0.73;;
11082;SDS011;5595;50.186;8.468;2023-04-24T07:07:46;0.50;;;0.50;;
11082;SDS011;5595;50.186;8.468;2023-04-24T07:10:17;0.90;;;0.55;;
11082;SDS011;5595;50.186;8.468;2023-04-24T07:12:45;0.60;;;0.60;;
11082;SDS011;5595;50.186;8.468;2023-04-24T07:15:12;1.20;;;0.57;;
11082;SDS011;5595;50.186;8.468;2023-04-24T07:17:39;0.93;;;0.60;;
11082;SDS011;5595;50.186;8.468;2023-04-24T07:20:08;0.70;;;0.60;;
11082;SDS011;5595;50.186;8.468;2023-04-24T07:22:37;0.60;;;0.60;;
11082;SDS011;5595;50.186;8.468;2023-04-24T07:25:06;0.73;;;0.60;;
11082;SDS011;5595;50.186;8.468;2023-04-24T07:27:33;0.40;;;0.40;;
11082;SDS011;5595;50.186;8.468;2023-04-24T07:30:01;0.40;;;0.40;;
11082;SDS011;5595;50.186;8.468;2023-04-24T07:32:29;0.47;;;0.40;;
11082;SDS011;5595;50.186;8.468;2023-04-24T07:34:56;0.30;;;0.30;;
11082;SDS011;5595;50.186;8.468;2023-04-24T07:37:22;0.32;;;0.32;;
11082;SDS011;5595;50.186;8.468;2023-04-24T07:39:49;0.52;;;0.50;;
11082;SDS011;5595;50.186;8.468;2023-04-24T07:42:18;0.80;;;0.52;;
11082;SDS011;5595;50.186;8.468;2023-04-24T07:44:45;0.40;;;0.40;;
11082;SDS011;5595;50.186;8.468;2023-04-24T07:47:13;0.30;;;0.30;;
11082;SDS011;5595;50.186;8.468;2023-04-24T07:49:40;0.40;;;0.38;;
11082;SDS011;5595;50.186;8.468;2023-04-24T07:52:08;0.28;;;0.28;;
11082;SDS011;5595;50.186;8.468;2023-04-24T07:54:35;0.68;;;0.40;;
11082;SDS011;5595;50.186;8.468;2023-04-24T07:57:02;0.80;;;0.47;;
11082;SDS011;5595;50.186;8.468;2023-04-24T07:59:33;0.50;;;0.30;;
11082;SDS011;5595;50.186;8.468;2023-04-24T08:02:00;0.20;;;0.20;;
11082;SDS011;5595;50.186;8.468;2023-04-24T08:04:27;0.43;;;0.43;;
11082;SDS011;5595;50.186;8.468;2023-04-24T08:06:54;0.30;;;0.30;;
11082;SDS011;5595;50.186;8.468;2023-04-24T08:09:21;0.50;;;0.47;;
11082;SDS011;5595;50.186;8.468;2023-04-24T08:11:48;0.40;;;0.40;;
11082;SDS011;5595;50.186;8.468;2023-04-24T08:14:14;0.47;;;0.47;;
11082;SDS011;5595;50.186;8.468;2023-04-24T08:16:43;1.98;;;0.50;;
11082;SDS011;5595;50.186;8.468;2023-04-24T08:19:10;0.30;;;0.30;;
11082;SDS011;5595;50.186;8.468;2023-04-24T08:21:37;0.50;;;0.50;;
11082;SDS011;5595;50.186;8.468;2023-04-24T08:24:04;0.55;;;0.55;;
11082;SDS011;5595;50.186;8.468;2023-04-24T08:26:32;0.60;;;0.60;;
11082;SDS011;5595;50.186;8.468;2023-04-24T08:28:59;0.30;;;0.30;;
11082;SDS011;5595;50.186;8.468;2023-04-24T08:31:26;1.33;;;0.68;;
11082;SDS011;5595;50.186;8.468;2023-04-24T08:33:55;0.38;;;0.38;;
11082;SDS011;5595;50.186;8.468;2023-04-24T08:36:22;3.70;;;0.50;;
11082;SDS011;5595;50.186;8.468;2023-04-24T08:38:48;0.47;;;0.47;;
11082;SDS011;5595;50.186;8.468;2023-04-24T08:41:15;0.47;;;0.47;;
11082;SDS011;5595;50.186;8.468;2023-04-24T08:43:45;1.08;;;0.50;;
11082;SDS011;5595;50.186;8.468;2023-04-24T08:46:13;2.03;;;0.50;;
11082;SDS011;5595;50.186;8.468;2023-04-24T08:48:41;0.45;;;0.40;;
11082;SDS011;5595;50.186;8.468;2023-04-24T08:51:10;0.35;;;0.35;;
11082;SDS011;5595;50.186;8.468;2023-04-24T08:53:37;0.30;;;0.30;;
11082;SDS011;5595;50.186;8.468;2023-04-24T08:56:04;0.47;;;0.40;;
11082;SDS011;5595;50.186;8.468;2023-04-24T08:58:32;0.57;;;0.57;;
11082;SDS011;5595;50.186;8.468;2023-04-24T09:00:59;0.52;;;0.40;;
11082;SDS011;5595;50.186;8.468;2023-04-24T09:03:27;0.93;;;0.40;;
11082;SDS011;5595;50.186;8.468;2023-04-24T09:05:55;0.30;;;0.30;;
11082;SDS011;5595;50.186;8.468;2023-04-24T09:08:25;0.63;;;0.50;;
11082;SDS011;5595;50.186;8.468;2023-04-24T09:10:52;0.43;;;0.43;;
11082;SDS011;5595;50.186;8.468;2023-04-24T09:13:19;1.08;;;0.50;;
11082;SDS011;5595;50.186;8.468;2023-04-24T09:15:46;0.90;;;0.22;;
11082;SDS011;5595;50.186;8.468;2023-04-24T09:18:13;0.47;;;0.40;;
11082;SDS011;5595;50.186;8.468;2023-04-24T09:21:02;0.38;;;0.38;;
11082;SDS011;5595;50.186;8.468;2023-04-24T09:23:35;1.10;;;0.60;;
11082;SDS011;5595;50.186;8.468;2023-04-24T09:26:05;0.47;;;0.40;;
11082;SDS011;5595;50.186;8.468;2023-04-24T09:28:34;0.65;;;0.32;;
11082;SDS011;5595;50.186;8.468;2023-04-24T09:31:03;0.28;;;0.28;;
11082;SDS011;5595;50.186;8.468;2023-04-24T09:33:32;0.60;;;0.43;;
11082;SDS011;5595;50.186;8.468;2023-04-24T09:35:59;0.60;;;0.60;;
11082;SDS011;5595;50.186;8.468;2023-04-24T09:38:30;0.30;;;0.30;;
11082;SDS011;5595;50.186;8.468;2023-04-24T09:41:00;2.35;;;0.30;;
11082;SDS011;5595;50.186;8.468;2023-04-24T09:43:28;0.38;;;0.30;;
11082;SDS011;5595;50.186;8.468;2023-04-24T09:45:55;0.40;;;0.40;;
11082;SDS011;5595;50.186;8.468;2023-04-24T09:48:30;0.35;;;0.35;;
11082;SDS011;5595;50.186;8.468;2023-04-24T09:50:58;0.43;;;0.30;;
11082;SDS011;5595;50.186;8.468;2023-04-24T09:53:26;0.30;;;0.30;;
11082;SDS011;5595;50.186;8.468;2023-04-24T09:55:53;0.35;;;0.30;;
11082;SDS011;5595;50.186;8.468;2023-04-24T09:58:25;0.32;;;0.32;;
11082;SDS011;5595;50.186;8.468;2023-04-24T10:00:56;0.20;;;0.10;;
11082;SDS011;5595;50.186;8.468;2023-04-24T10:03:24;0.30;;;0.30;;
11082;SDS011;5595;50.186;8.468;2023-04-24T10:05:52;0.55;;;0.22;;
11082;SDS011;5595;50.186;8.468;2023-04-24T10:08:20;0.63;;;0.20;;
11082;SDS011;5595;50.186;8.468;2023-04-24T10:10:47;0.20;;;0.20;;
11082;SDS011;5595;50.186;8.468;2023-04-24T10:13:14;0.20;;;0.20;;
11082;SDS011;5595;50.186;8.468;2023-04-24T10:15:43;0.63;;;0.20;;
11082;SDS011;5595;50.186;8.468;2023-04-24T10:18:10;0.13;;;0.13;;
11082;SDS011;5595;50.186;8.468;2023-04-24T10:20:38;0.17;;;0.17;;
11082;SDS011;5595;50.186;8.468;2023-04-24T10:23:06;0.10;;;0.10;;
11082;SDS011;5595;50.186;8.468;2023-04-24T10:25:34;0.10;;;0.10;;
11082;SDS011;5595;50.186;8.468;2023-04-24T10:28:02;0.20;;;0.10;;
11082;SDS011;5595;50.186;8.468;2023-04-24T10:30:30;0.32;;;0.10;;
11082;SDS011;5595;50.186;8.468;2023-04-24T10:33:01;0.10;;;0.10;;
11082;SDS011;5595;50.186;8.468;2023-04-24T10:35:30;1.60;;;0.10;;
11082;SDS011;5595;50.186;8.468;2023-04-24T10:38:02;0.20;;;0.20;;
11082;SDS011;5595;50.186;8.468;2023-04-24T10:40:33;0.10;;;0.10;;
11082;SDS011;5595;50.186;8.468;2023-04-24T10:43:02;0.17;;;0.17;;
11082;SDS011;5595;50.186;8.468;2023-04-24T10:45:31;0.43;;;0.15;;
11082;SDS011;5595;50.186;8.468;2023-04-24T10:48:04;0.20;;;0.20;;
11082;SDS011;5595;50.186;8.468;2023-04-24T10:50:43;0.10;;;0.10;;
11082;SDS011;5595;50.186;8.468;2023-04-24T10:53:15;0.10;;;0.10;;
11082;SDS011;5595;50.186;8.468;2023-04-24T10:55:43;0.10;;;0.10;;
11082;SDS011;5595;50.186;8.468;2023-04-24T10:58:12;0.68;;;0.28;;
11082;SDS011;5595;50.186;8.468;2023-04-24T11:00:40;0.20;;;0.20;;
11082;SDS011;5595;50.186;8.468;2023-04-24T11:03:24;0.10;;;0.10;;
11082;SDS011;5595;50.186;8.468;2023-04-24T11:05:57;0.10;;;0.10;;
11082;SDS011;5595;50.186;8.468;2023-04-24T11:08:28;0.10;;;0.10;;
11082;SDS011;5595;50.186;8.468;2023-04-24T11:10:58;0.38;;;0.20;;
11082;SDS011;5595;50.186;8.468;2023-04-24T11:13:29;0.70;;;0.20;;
11082;SDS011;5595;50.186;8.468;2023-04-24T11:16:35;0.40;;;0.20;;
11082;SDS011;5595;50.186;8.468;2023-04-24T11:19:20;0.30;;;0.30;;
11082;SDS011;5595;50.186;8.468;2023-04-24T11:21:54;0.45;;;0.10;;
11082;SDS011;5595;50.186;8.468;2023-04-24T11:24:32;0.20;;;0.20;;
11082;SDS011;5595;50.186;8.468;2023-04-24T11:27:06;0.20;;;0.20;;
11082;SDS011;5595;50.186;8.468;2023-04-24T11:29:47;0.57;;;0.30;;
11082;SDS011;5595;50.186;8.468;2023-04-24T11:32:19;0.20;;;0.20;;
11082;SDS011;5595;50.186;8.468;2023-04-24T11:34:52;0.40;;;0.20;;
11082;SDS011;5595;50.186;8.468;2023-04-24T11:37:21;0.30;;;0.30;;
11082;SDS011;5595;50.186;8.468;2023-04-24T11:39:52;0.20;;;0.20;;
11082;SDS011;5595;50.186;8.468;2023-04-24T11:42:20;1.70;;;0.30;;
11082;SDS011;5595;50.186;8.468;2023-04-24T11:44:48;1.85;;;0.20;;
11082;SDS011;5595;50.186;8.468;2023-04-24T11:47:16;0.10;;;0.10;;
11082;SDS011;5595;50.186;8.468;2023-04-24T11:49:42;0.20;;;0.20;;
11082;SDS011;5595;50.186;8.468;2023-04-24T11:52:11;0.20;;;0.10;;
11082;SDS011;5595;50.186;8.468;2023-04-24T11:54:46;0.40;;;0.20;;
11082;SDS011;5595;50.186;8.468;2023-04-24T11:57:14;0.43;;;0.40;;
11082;SDS011;5595;50.186;8.468;2023-04-24T11:59:41;0.20;;;0.20;;
11082;SDS011;5595;50.186;8.468;2023-04-24T12:02:08;0.40;;;0.20;;
11082;SDS011;5595;50.186;8.468;2023-04-24T12:04:45;0.63;;;0.32;;
11082;SDS011;5595;50.186;8.468;2023-04-24T12:07:14;1.38;;;0.30;;
11082;SDS011;5595;50.186;8.468;2023-04-24T12:09:42;0.25;;;0.25;;
11082;SDS011;5595;50.186;8.468;2023-04-24T12:12:10;0.60;;;0.30;;
11082;SDS011;5595;50.186;8.468;2023-04-24T12:14:45;0.20;;;0.20;;
11082;SDS011;5595;50.186;8.468;2023-04-24T12:17:14;0.20;;;0.20;;
11082;SDS011;5595;50.186;8.468;2023-04-24T12:19:45;0.20;;;0.20;;
11082;SDS011;5595;50.186;8.468;2023-04-24T12:22:15;0.40;;;0.40;;
11082;SDS011;5595;50.186;8.468;2023-04-24T12:24:58;0.38;;;0.38;;
11082;SDS011;5595;50.186;8.468;2023-04-24T12:27:29;0.52;;;0.40;;
11082;SDS011;5595;50.186;8.468;2023-04-24T12:29:58;0.82;;;0.50;;
11082;SDS011;5595;50.186;8.468;2023-04-24T12:32:25;1.75;;;0.57;;
11082;SDS011;5595;50.186;8.468;2023-04-24T12:34:53;0.40;;;0.40;;
11082;SDS011;5595;50.186;8.468;2023-04-24T12:37:23;0.45;;;0.38;;
11082;SDS011;5595;50.186;8.468;2023-04-24T12:40:01;1.42;;;0.52;;
11082;SDS011;5595;50.186;8.468;2023-04-24T12:42:30;2.45;;;0.70;;
11082;SDS011;5595;50.186;8.468;2023-04-24T12:44:57;1.35;;;0.55;;
11082;SDS011;5595;50.186;8.468;2023-04-24T12:47:26;0.57;;;0.57;;
11082;SDS011;5595;50.186;8.468;2023-04-24T12:49:54;0.25;;;0.25;;
11082;SDS011;5595;50.186;8.468;2023-04-24T12:52:21;1.92;;;0.50;;
11082;SDS011;5595;50.186;8.468;2023-04-24T12:54:50;0.50;;;0.50;;
11082;SDS011;5595;50.186;8.468;2023-04-24T12:57:18;0.55;;;0.45;;
11082;SDS011;5595;50.186;8.468;2023-04-24T12:59:46;0.68;;;0.47;;
11082;SDS011;5595;50.186;8.468;2023-04-24T13:02:13;0.85;;;0.60;;
11082;SDS011;5595;50.186;8.468;2023-04-24T13:04:42;0.47;;;0.47;;
11082;SDS011;5595;50.186;8.468;2023-04-24T13:07:10;1.13;;;0.52;;
11082;SDS011;5595;50.186;8.468;2023-04-24T13:09:39;0.95;;;0.60;;
11082;SDS011;5595;50.186;8.468;2023-04-24T13:12:08;0.60;;;0.60;;
11082;SDS011;5595;50.186;8.468;2023-04-24T13:14:35;0.68;;;0.30;;
11082;SDS011;5595;50.186;8.468;2023-04-24T13:17:03;1.80;;;0.60;;
11082;SDS011;5595;50.186;8.468;2023-04-24T13:19:35;0.65;;;0.63;;
11082;SDS011;5595;50.186;8.468;2023-04-24T13:22:03;0.30;;;0.30;;
11082;SDS011;5595;50.186;8.468;2023-04-24T13:24:31;0.40;;;0.40;;
11082;SDS011;5595;50.186;8.468;2023-04-24T13:26:58;0.75;;;0.45;;
11082;SDS011;5595;50.186;8.468;2023-04-24T13:29:27;0.95;;;0.40;;
11082;SDS011;5595;50.186;8.468;2023-04-24T13:31:54;0.45;;;0.40;;
11082;SDS011;5595;50.186;8.468;2023-04-24T13:34:22;0.47;;;0.30;;
11082;SDS011;5595;50.186;8.468;2023-04-24T13:36:49;1.33;;;0.60;;
11082;SDS011;5595;50.186;8.468;2023-04-24T13:39:16;0.25;;;0.25;;
11082;SDS011;5595;50.186;8.468;2023-04-24T13:41:43;0.50;;;0.50;;
11082;SDS011;5595;50.186;8.468;2023-04-24T13:44:12;0.55;;;0.50;;
11082;SDS011;5595;50.186;8.468;2023-04-24T13:46:40;0.60;;;0.60;;
11082;SDS011;5595;50.186;8.468;2023-04-24T13:49:08;1.45;;;0.75;;
11082;SDS011;5595;50.186;8.468;2023-04-24T13:51:35;0.82;;;0.50;;
11082;SDS011;5595;50.186;8.468;2023-04-24T13:54:02;0.55;;;0.43;;
11082;SDS011;5595;50.186;8.468;2023-04-24T13:56:29;2.78;;;0.60;;
11082;SDS011;5595;50.186;8.468;2023-04-24T13:58:56;0.47;;;0.47;;
11082;SDS011;5595;50.186;8.468;2023-04-24T14:01:23;0.45;;;0.40;;
11082;SDS011;5595;50.186;8.468;2023-04-24T14:03:52;0.77;;;0.70;;
11082;SDS011;5595;50.186;8.468;2023-04-24T14:06:19;2.10;;;0.70;;
11082;SDS011;5595;50.186;8.468;2023-04-24T14:08:48;3.70;;;0.85;;
11082;SDS011;5595;50.186;8.468;2023-04-24T14:11:16;1.30;;;0.85;;
11082;SDS011;5595;50.186;8.468;2023-04-24T14:13:44;0.40;;;0.40;;
11082;SDS011;5595;50.186;8.468;2023-04-24T14:16:11;0.60;;;0.60;;
11082;SDS011;5595;50.186;8.468;2023-04-24T14:18:39;1.63;;;0.70;;
11082;SDS011;5595;50.186;8.468;2023-04-24T14:21:07;2.05;;;0.85;;
11082;SDS011;5595;50.186;8.468;2023-04-24T14:23:34;2.05;;;0.70;;
11082;SDS011;5595;50.186;8.468;2023-04-24T14:26:02;0.50;;;0.50;;
11082;SDS011;5595;50.186;8.468;2023-04-24T14:28:29;0.93;;;0.55;;
11082;SDS011;5595;50.186;8.468;2023-04-24T14:30:57;2.67;;;0.70;;
11082;SDS011;5595;50.186;8.468;2023-04-24T14:33:24;0.47;;;0.30;;
11082;SDS011;5595;50.186;8.468;2023-04-24T14:35:50;1.58;;;0.70;;
11082;SDS011;5595;50.186;8.468;2023-04-24T14:38:19;0.50;;;0.50;;
11082;SDS011;5595;50.186;8.468;2023-04-24T14:40:46;0.60;;;0.60;;
11082;SDS011;5595;50.186;8.468;2023-04-24T14:43:13;1.05;;;0.68;;
11082;SDS011;5595;50.186;8.468;2023-04-24T14:45:39;0.80;;;0.55;;
11082;SDS011;5595;50.186;8.468;2023-04-24T14:48:07;0.75;;;0.50;;
11082;SDS011;5595;50.186;8.468;2023-04-24T14:50:34;0.50;;;0.30;;
11082;SDS011;5595;50.186;8.468;2023-04-24T14:53:01;0.95;;;0.55;;
11082;SDS011;5595;50.186;8.468;2023-04-24T14:55:29;0.52;;;0.52;;
11082;SDS011;5595;50.186;8.468;2023-04-24T14:57:56;0.40;;;0.40;;
11082;SDS011;5595;50.186;8.468;2023-04-24T15:00:23;1.05;;;0.43;;
11082;SDS011;5595;50.186;8.468;2023-04-24T15:02:50;0.75;;;0.47;;
11082;SDS011;5595;50.186;8.468;2023-04-24T15:05:17;1.65;;;0.40;;